Time;durP1;ratioP1;P1;durP2;ratioP2;P2;SDS_P1;SDS_P2;PMS_P1;PMS_P2;Temp;Humidity;BMP_temperature;BMP_pressure;BME280_temperature;BME280_humidity;BME280_pressure;Samples;Min_cycle;Max_cycle;Signal;HPM_P1;HPM_P2
2022/01/21 00:01:07;;;;;;;2.63;0.95;;;;;;;;;;5112540;28;20106;-79
2022/01/21 00:03:34;;;;;;;3.67;1.10;;;;;;;;;;5094182;28;20429;-79
2022/01/21 00:06:00;;;;;;;3.08;0.73;;;;;;;;;;5113145;28;20119;-81
2022/01/21 00:08:26;;;;;;;2.67;0.98;;;;;;;;;;5113459;28;20103;-80
2022/01/21 00:10:52;;;;;;;2.72;1.13;;;;;;;;;;5113353;28;20024;-82
2022/01/21 00:13:34;;;;;;;3.08;1.13;;;;;;;;;;5113144;28;20499;-79
2022/01/21 00:16:00;;;;;;;2.75;1.10;;;;;;;;;;5113008;28;20016;-82
2022/01/21 00:18:26;;;;;;;2.83;1.20;;;;;;;;;;5113258;28;20035;-80
2022/01/21 00:31:51;;;;;;;3.65;1.02;;;;;;;;;;5092044;28;20043;-80
2022/01/21 00:34:17;;;;;;;4.00;1.27;;;;;;;;;;5092131;28;20405;-80
2022/01/21 00:36:43;;;;;;;2.83;1.05;;;;;;;;;;5073760;28;20069;-79
2022/01/21 00:39:11;;;;;;;3.17;1.02;;;;;;;;;;5092265;28;20035;-80
2022/01/21 00:41:43;;;;;;;3.08;1.02;;;;;;;;;;5073813;28;20170;-81
2022/01/21 00:44:09;;;;;;;2.10;0.95;;;;;;;;;;5091702;28;20442;-82
2022/01/21 00:46:36;;;;;;;3.10;1.02;;;;;;;;;;5091881;28;20036;-82
2022/01/21 00:49:02;;;;;;;3.50;1.13;;;;;;;;;;5091995;28;20024;-80
2022/01/21 00:51:28;;;;;;;3.70;0.95;;;;;;;;;;5091590;28;20042;-80
2022/01/21 00:53:54;;;;;;;2.70;1.08;;;;;;;;;;5074072;28;20020;-80
2022/01/21 00:56:20;;;;;;;3.25;1.08;;;;;;;;;;5091827;28;20028;-81
2022/01/21 00:58:47;;;;;;;3.30;1.52;;;;;;;;;;5091629;28;20069;-81
2022/01/21 01:01:13;;;;;;;3.55;1.30;;;;;;;;;;5109642;28;20539;-82
2022/01/21 01:03:39;;;;;;;3.58;1.20;;;;;;;;;;5111924;28;20114;-82
2022/01/21 01:06:05;;;;;;;3.85;1.20;;;;;;;;;;5112155;28;20212;-83
2022/01/21 01:08:31;;;;;;;3.42;1.20;;;;;;;;;;5093246;28;20080;-83
2022/01/21 01:11:17;;;;;;;5.32;1.35;;;;;;;;;;5093597;28;20024;-81
2022/01/21 01:21:45;;;;;;;4.25;1.17;;;;;;;;;;5111631;28;20035;-84
2022/01/21 01:29:24;;;;;;;4.75;1.40;;;;;;;;;;5111938;28;20084;-83
2022/01/21 01:31:50;;;;;;;3.33;1.23;;;;;;;;;;5111613;28;20047;-81
2022/01/21 01:34:16;;;;;;;3.30;0.93;;;;;;;;;;5111694;28;20034;-81
2022/01/21 01:36:45;;;;;;;2.95;1.10;;;;;;;;;;5093312;28;20117;-82
2022/01/21 01:49:40;;;;;;;3.70;1.48;;;;;;;;;;5111345;28;20096;-82
2022/01/21 01:52:10;;;;;;;3.83;1.52;;;;;;;;;;5111473;28;20154;-82
2022/01/21 01:54:38;;;;;;;4.30;1.27;;;;;;;;;;5112493;28;20479;-82
2022/01/21 01:57:04;;;;;;;3.42;1.30;;;;;;;;;;5097534;28;20027;-81
2022/01/21 01:59:30;;;;;;;3.90;1.33;;;;;;;;;;5115026;28;20028;-82
2022/01/21 02:02:01;;;;;;;3.67;1.50;;;;;;;;;;5115878;28;20023;-83
2022/01/21 02:04:28;;;;;;;2.17;1.00;;;;;;;;;;5115575;28;20024;-80
2022/01/21 02:06:54;;;;;;;4.57;1.05;;;;;;;;;;5115901;28;20085;-80
2022/01/21 02:09:20;;;;;;;3.55;1.13;;;;;;;;;;5096639;28;20030;-80
2022/01/21 02:11:47;;;;;;;2.28;0.90;;;;;;;;;;5115190;28;20502;-81
2022/01/21 02:14:19;;;;;;;3.90;1.20;;;;;;;;;;5096979;28;20023;-80
2022/01/21 02:22:09;;;;;;;3.83;1.33;;;;;;;;;;5115393;28;20054;-81
2022/01/21 02:24:47;;;;;;;2.78;1.13;;;;;;;;;;5114913;28;20491;-82
2022/01/21 02:27:13;;;;;;;3.17;1.20;;;;;;;;;;5115252;28;20430;-83
2022/01/21 02:32:32;;;;;;;3.15;1.05;;;;;;;;;;5111540;28;20418;-81
2022/01/21 02:34:58;;;;;;;2.78;0.95;;;;;;;;;;5096777;28;20022;-81
2022/01/21 02:37:25;;;;;;;4.90;1.10;;;;;;;;;;5115224;28;20023;-82
2022/01/21 02:39:51;;;;;;;1.83;0.93;;;;;;;;;;5114568;28;20023;-83
2022/01/21 02:42:17;;;;;;;2.22;1.00;;;;;;;;;;5096511;28;20054;-85
2022/01/21 02:44:43;;;;;;;3.55;0.93;;;;;;;;;;5096058;28;20032;-86
2022/01/21 02:47:09;;;;;;;2.17;0.70;;;;;;;;;;5114993;28;20115;-86
2022/01/21 02:49:36;;;;;;;2.42;0.82;;;;;;;;;;5113889;28;20564;-84
2022/01/21 02:52:03;;;;;;;5.90;1.13;;;;;;;;;;5114493;28;20387;-82
2022/01/21 02:54:30;;;;;;;3.45;1.15;;;;;;;;;;5114289;28;20094;-83
2022/01/21 02:56:56;;;;;;;3.65;0.93;;;;;;;;;;5114388;28;20079;-83
2022/01/21 02:59:22;;;;;;;2.15;0.95;;;;;;;;;;5114916;28;20038;-83
2022/01/21 03:01:49;;;;;;;2.65;0.73;;;;;;;;;;5096039;28;20026;-87
2022/01/21 03:04:23;;;;;;;3.90;0.80;;;;;;;;;;5114335;28;20038;-86
2022/01/21 03:06:49;;;;;;;2.58;1.20;;;;;;;;;;5095379;28;20032;-83
2022/01/21 03:09:15;;;;;;;2.78;0.85;;;;;;;;;;5114320;28;20071;-84
2022/01/21 03:11:41;;;;;;;3.05;0.90;;;;;;;;;;5113979;28;20445;-81
2022/01/21 03:14:07;;;;;;;3.58;0.90;;;;;;;;;;5114281;28;20031;-83
2022/01/21 03:16:33;;;;;;;3.40;1.02;;;;;;;;;;5114124;28;20399;-82
2022/01/21 03:19:00;;;;;;;3.80;1.23;;;;;;;;;;5113641;28;20514;-83
2022/01/21 03:21:27;;;;;;;4.18;1.10;;;;;;;;;;5113933;28;20034;-82
2022/01/21 03:23:54;;;;;;;2.00;0.88;;;;;;;;;;5096206;28;20019;-83
2022/01/21 03:26:21;;;;;;;3.60;1.20;;;;;;;;;;5095658;28;20031;-84
2022/01/21 03:28:48;;;;;;;2.08;1.00;;;;;;;;;;5113628;28;20457;-83
2022/01/21 03:31:14;;;;;;;2.72;0.98;;;;;;;;;;5095619;28;20498;-84
2022/01/21 03:33:40;;;;;;;2.22;0.88;;;;;;;;;;5095103;28;20022;-83
2022/01/21 03:36:07;;;;;;;2.65;0.80;;;;;;;;;;5113845;28;20383;-84
2022/01/21 03:38:33;;;;;;;2.42;0.77;;;;;;;;;;5113478;28;20024;-84
2022/01/21 03:40:59;;;;;;;3.08;0.57;;;;;;;;;;5113662;28;20027;-84
2022/01/21 03:43:25;;;;;;;3.20;0.90;;;;;;;;;;5113854;28;20028;-81
2022/01/21 03:45:52;;;;;;;3.55;0.70;;;;;;;;;;5113442;28;20067;-82
2022/01/21 03:48:18;;;;;;;4.53;1.02;;;;;;;;;;5113229;28;20023;-82
2022/01/21 03:50:44;;;;;;;3.10;0.90;;;;;;;;;;5094804;28;20040;-83
2022/01/21 03:53:10;;;;;;;3.63;0.93;;;;;;;;;;5095255;28;20015;-83
2022/01/21 03:55:36;;;;;;;3.42;0.90;;;;;;;;;;5094910;28;20019;-85
2022/01/21 03:58:04;;;;;;;2.47;0.95;;;;;;;;;;5095019;28;20063;-85
2022/01/21 04:00:31;;;;;;;2.55;0.90;;;;;;;;;;5113145;28;20054;-86
2022/01/21 04:02:58;;;;;;;3.60;1.20;;;;;;;;;;5112985;28;20477;-83
2022/01/21 04:05:24;;;;;;;2.92;0.90;;;;;;;;;;5113517;28;20064;-84
2022/01/21 04:07:50;;;;;;;3.75;1.25;;;;;;;;;;5093937;28;20027;-87
2022/01/21 04:10:16;;;;;;;3.40;1.00;;;;;;;;;;5094868;28;20032;-78
2022/01/21 04:12:42;;;;;;;3.65;1.27;;;;;;;;;;5113013;28;20080;-86
2022/01/21 04:15:08;;;;;;;3.60;0.93;;;;;;;;;;5112854;28;20032;-86
2022/01/21 04:17:35;;;;;;;4.25;1.08;;;;;;;;;;5112036;28;20020;-86
2022/01/21 04:20:01;;;;;;;2.08;0.70;;;;;;;;;;5094607;28;20475;-86
2022/01/21 04:22:27;;;;;;;2.75;0.75;;;;;;;;;;5112702;28;20031;-86
2022/01/21 04:24:54;;;;;;;3.33;1.17;;;;;;;;;;5111713;28;20036;-85
2022/01/21 04:27:21;;;;;;;1.85;0.80;;;;;;;;;;5112604;28;20461;-89
2022/01/21 04:29:47;;;;;;;2.80;0.77;;;;;;;;;;5113159;28;20379;-87
2022/01/21 04:32:15;;;;;;;3.58;0.82;;;;;;;;;;5113241;28;20065;-86
2022/01/21 04:34:41;;;;;;;1.98;0.75;;;;;;;;;;5095276;28;20035;-87
2022/01/21 04:37:12;;;;;;;2.97;1.08;;;;;;;;;;5094679;28;20026;-86
2022/01/21 04:39:45;;;;;;;3.38;0.80;;;;;;;;;;5094743;28;20444;-86
2022/01/21 04:47:31;;;;;;;4.32;1.05;;;;;;;;;;5112962;28;20062;-86
2022/01/21 04:49:57;;;;;;;2.85;0.93;;;;;;;;;;5095129;28;20028;-85
2022/01/21 04:52:24;;;;;;;2.78;1.13;;;;;;;;;;5094512;28;20026;-89
2022/01/21 04:54:50;;;;;;;1.40;0.60;;;;;;;;;;5094577;28;20028;-89
2022/01/21 04:57:16;;;;;;;3.03;1.08;;;;;;;;;;5094256;28;20024;-89
2022/01/21 04:59:42;;;;;;;1.35;0.55;;;;;;;;;;5094740;28;20020;-90
2022/01/21 05:02:09;;;;;;;3.97;0.80;;;;;;;;;;5094418;28;20019;-86
2022/01/21 05:04:35;;;;;;;2.15;0.75;;;;;;;;;;5094305;28;20050;-89
2022/01/21 05:07:04;;;;;;;2.47;0.65;;;;;;;;;;5094187;28;20114;-84
2022/01/21 05:09:32;;;;;;;2.50;0.80;;;;;;;;;;5110618;28;20108;-85
2022/01/21 05:11:59;;;;;;;3.58;1.10;;;;;;;;;;5093997;28;20053;-84
2022/01/21 05:14:28;;;;;;;3.55;0.90;;;;;;;;;;5093815;28;20067;-85
2022/01/21 05:17:02;;;;;;;4.57;1.00;;;;;;;;;;5093999;28;20015;-85
2022/01/21 05:19:28;;;;;;;3.25;0.98;;;;;;;;;;5112321;28;20030;-85
2022/01/21 05:21:54;;;;;;;2.58;0.70;;;;;;;;;;5112013;28;20023;-85
2022/01/21 05:24:21;;;;;;;2.60;0.88;;;;;;;;;;5111518;28;20067;-85
2022/01/21 05:26:54;;;;;;;2.45;0.75;;;;;;;;;;5111462;28;20499;-85
2022/01/21 05:29:21;;;;;;;1.35;0.60;;;;;;;;;;5092743;28;20032;-85
2022/01/21 05:31:48;;;;;;;2.13;0.77;;;;;;;;;;5112213;28;20024;-85
2022/01/21 05:34:14;;;;;;;3.70;0.80;;;;;;;;;;5111898;28;20505;-89
2022/01/21 05:36:41;;;;;;;2.72;0.90;;;;;;;;;;5093441;28;20030;-89
2022/01/21 05:39:07;;;;;;;2.00;0.77;;;;;;;;;;5111806;28;20038;-88
2022/01/21 05:41:33;;;;;;;1.75;0.63;;;;;;;;;;5094224;28;20073;-88
2022/01/21 05:44:07;;;;;;;2.13;0.82;;;;;;;;;;5112467;28;20111;-89
2022/01/21 05:49:08;;;;;;;5.18;1.20;;;;;;;;;;5111826;28;20028;-88
2022/01/21 05:51:34;;;;;;;2.60;0.90;;;;;;;;;;5112324;28;20054;-89
2022/01/21 05:54:00;;;;;;;3.63;0.80;;;;;;;;;;5094122;28;20016;-89
2022/01/21 05:56:27;;;;;;;3.13;0.90;;;;;;;;;;5112461;28;20502;-90
2022/01/21 05:58:54;;;;;;;2.60;0.80;;;;;;;;;;5112325;28;20098;-89
2022/01/21 06:01:20;;;;;;;1.95;0.70;;;;;;;;;;5111334;28;20015;-90
2022/01/21 06:03:46;;;;;;;2.42;0.65;;;;;;;;;;5093363;28;20169;-90
2022/01/21 06:06:12;;;;;;;3.55;0.90;;;;;;;;;;5093880;28;20039;-90
2022/01/21 06:08:38;;;;;;;2.58;0.70;;;;;;;;;;5094256;28;20097;-91
2022/01/21 06:11:05;;;;;;;3.78;0.70;;;;;;;;;;5093621;28;20024;-89
2022/01/21 06:13:31;;;;;;;2.58;0.80;;;;;;;;;;5094299;28;20028;-89
2022/01/21 06:15:59;;;;;;;2.10;0.70;;;;;;;;;;5094147;28;20024;-88
2022/01/21 06:18:25;;;;;;;2.95;1.00;;;;;;;;;;5093772;28;20088;-89
2022/01/21 06:20:51;;;;;;;3.88;0.90;;;;;;;;;;5094077;28;20130;-89
2022/01/21 06:23:18;;;;;;;3.17;0.90;;;;;;;;;;5093965;28;20016;-88
2022/01/21 06:25:44;;;;;;;2.15;0.60;;;;;;;;;;5093692;28;20066;-84
2022/01/21 06:28:10;;;;;;;2.05;0.70;;;;;;;;;;5110837;28;20024;-86
2022/01/21 06:30:36;;;;;;;3.00;0.77;;;;;;;;;;5092596;28;20035;-85
2022/01/21 06:33:02;;;;;;;3.15;0.98;;;;;;;;;;5093433;28;20074;-83
2022/01/21 06:35:28;;;;;;;2.25;0.85;;;;;;;;;;5093236;28;20511;-83
2022/01/21 06:37:54;;;;;;;2.10;0.77;;;;;;;;;;5111270;28;20024;-83
2022/01/21 06:40:20;;;;;;;2.67;1.02;;;;;;;;;;5111663;28;20106;-84
2022/01/21 06:42:50;;;;;;;4.72;1.00;;;;;;;;;;5114848;28;20454;-83
2022/01/21 06:45:16;;;;;;;3.97;0.90;;;;;;;;;;5114131;28;20082;-83
2022/01/21 06:47:42;;;;;;;2.42;0.98;;;;;;;;;;5114811;28;20054;-86
2022/01/21 06:50:08;;;;;;;2.50;0.60;;;;;;;;;;5096161;28;20479;-85
2022/01/21 06:52:35;;;;;;;4.28;0.93;;;;;;;;;;5114659;28;20031;-83
2022/01/21 06:55:01;;;;;;;4.15;1.00;;;;;;;;;;5096521;28;20475;-83
2022/01/21 06:57:28;;;;;;;3.97;0.90;;;;;;;;;;5114973;28;20027;-78
2022/01/21 06:59:54;;;;;;;2.72;0.90;;;;;;;;;;5114520;28;20015;-78
2022/01/21 07:02:20;;;;;;;6.80;1.27;;;;;;;;;;5113398;28;20502;-77
2022/01/21 07:04:47;;;;;;;1.58;0.80;;;;;;;;;;5114391;28;20033;-77
2022/01/21 07:07:13;;;;;;;5.15;0.90;;;;;;;;;;5114139;28;20038;-80
2022/01/21 07:09:39;;;;;;;3.70;1.08;;;;;;;;;;5114698;28;20387;-79
2022/01/21 07:12:05;;;;;;;3.95;0.98;;;;;;;;;;5114138;28;20034;-78
2022/01/21 07:14:31;;;;;;;2.30;0.77;;;;;;;;;;5114562;28;20047;-77
2022/01/21 07:16:57;;;;;;;4.25;0.70;;;;;;;;;;5114604;28;20024;-76
2022/01/21 07:19:23;;;;;;;4.63;1.05;;;;;;;;;;5113674;28;20027;-77
2022/01/21 07:21:49;;;;;;;1.70;0.60;;;;;;;;;;5114086;28;20028;-77
2022/01/21 07:24:16;;;;;;;2.13;0.90;;;;;;;;;;5113793;28;20035;-76
2022/01/21 07:26:42;;;;;;;4.82;0.98;;;;;;;;;;5114163;28;20049;-78
2022/01/21 07:29:08;;;;;;;3.08;1.02;;;;;;;;;;5113657;28;20031;-80
2022/01/21 07:31:34;;;;;;;3.10;1.10;;;;;;;;;;5113836;28;20028;-75
2022/01/21 07:34:04;;;;;;;2.67;0.80;;;;;;;;;;5114254;28;20113;-76
2022/01/21 07:36:30;;;;;;;6.00;1.00;;;;;;;;;;5114141;28;20031;-76
2022/01/21 07:38:56;;;;;;;5.45;1.08;;;;;;;;;;5113674;28;20028;-77
2022/01/21 07:41:22;;;;;;;3.58;0.70;;;;;;;;;;5113489;28;20094;-77
2022/01/21 07:43:48;;;;;;;4.00;1.00;;;;;;;;;;5112999;28;20028;-77
2022/01/21 07:46:16;;;;;;;1.95;0.80;;;;;;;;;;5113264;28;20407;-74
2022/01/21 07:48:42;;;;;;;4.15;1.10;;;;;;;;;;5112763;28;20024;-78
2022/01/21 07:51:09;;;;;;;3.85;0.98;;;;;;;;;;5112450;28;20031;-77
2022/01/21 07:53:35;;;;;;;2.72;0.82;;;;;;;;;;5112557;28;20468;-77
2022/01/21 07:56:02;;;;;;;4.15;1.15;;;;;;;;;;5113602;28;20481;-77
2022/01/21 07:58:28;;;;;;;4.43;1.30;;;;;;;;;;5113263;28;20045;-76
2022/01/21 08:00:54;;;;;;;5.97;1.20;;;;;;;;;;5113162;28;20027;-79
2022/01/21 08:03:20;;;;;;;4.72;1.65;;;;;;;;;;5113094;28;20024;-79
2022/01/21 08:05:47;;;;;;;56.65;50.63;;;;;;;;;;5113352;28;20405;-79
2022/01/21 08:08:13;;;;;;;35.45;29.60;;;;;;;;;;5112962;28;20070;-76
2022/01/21 08:10:39;;;;;;;25.23;13.80;;;;;;;;;;5113087;28;20023;-77
2022/01/21 08:13:05;;;;;;;14.50;12.15;;;;;;;;;;5113046;28;20103;-77
2022/01/21 08:15:31;;;;;;;20.02;15.48;;;;;;;;;;5113344;28;20023;-77
2022/01/21 08:17:57;;;;;;;23.20;17.58;;;;;;;;;;5113267;28;20034;-77
2022/01/21 08:20:23;;;;;;;19.35;16.13;;;;;;;;;;5112317;28;20034;-77
2022/01/21 08:22:49;;;;;;;20.17;16.63;;;;;;;;;;5112994;28;20028;-76
2022/01/21 08:25:15;;;;;;;19.00;15.02;;;;;;;;;;5112418;28;20094;-76
2022/01/21 08:27:41;;;;;;;21.45;13.93;;;;;;;;;;5112769;28;20464;-77
2022/01/21 08:30:08;;;;;;;15.98;13.85;;;;;;;;;;5112613;28;20028;-77
2022/01/21 08:32:34;;;;;;;20.67;14.52;;;;;;;;;;5112752;28;20023;-77
2022/01/21 08:35:00;;;;;;;17.50;13.63;;;;;;;;;;5112070;28;20098;-77
2022/01/21 08:37:26;;;;;;;17.35;12.63;;;;;;;;;;5110270;28;20038;-77
2022/01/21 08:39:52;;;;;;;15.82;13.35;;;;;;;;;;5111966;28;20023;-77
2022/01/21 08:42:18;;;;;;;15.88;11.88;;;;;;;;;;5112300;28;20028;-77
2022/01/21 08:44:44;;;;;;;15.63;11.40;;;;;;;;;;5112234;28;20028;-77
2022/01/21 08:47:10;;;;;;;14.05;10.88;;;;;;;;;;5112216;28;20395;-77
2022/01/21 08:49:36;;;;;;;15.30;11.55;;;;;;;;;;5112028;28;20031;-77
2022/01/21 08:52:03;;;;;;;14.38;10.75;;;;;;;;;;5093840;28;20118;-78
2022/01/21 08:54:29;;;;;;;13.18;10.23;;;;;;;;;;5094192;28;20112;-77
2022/01/21 08:56:55;;;;;;;13.07;10.20;;;;;;;;;;5112162;28;20435;-77
2022/01/21 08:59:22;;;;;;;13.05;10.30;;;;;;;;;;5111876;28;20030;-77
2022/01/21 09:01:49;;;;;;;13.80;9.48;;;;;;;;;;5112083;28;20073;-77
2022/01/21 09:04:16;;;;;;;14.05;9.38;;;;;;;;;;5093126;28;20031;-76
2022/01/21 09:06:42;;;;;;;12.25;9.13;;;;;;;;;;5093817;28;20027;-77
2022/01/21 09:09:08;;;;;;;11.25;9.00;;;;;;;;;;5111839;28;20519;-77
2022/01/21 09:11:34;;;;;;;11.27;8.63;;;;;;;;;;5112001;28;20395;-77
2022/01/21 09:14:01;;;;;;;11.95;8.20;;;;;;;;;;5112457;28;20023;-77
2022/01/21 09:16:27;;;;;;;14.20;8.68;;;;;;;;;;5112241;28;20020;-77
2022/01/21 09:18:56;;;;;;;11.05;7.90;;;;;;;;;;5111312;28;20483;-77
2022/01/21 09:21:24;;;;;;;12.82;7.57;;;;;;;;;;5092837;28;20072;-77
2022/01/21 09:23:50;;;;;;;13.15;7.82;;;;;;;;;;5111601;28;20038;-76
2022/01/21 09:26:17;;;;;;;8.07;6.85;;;;;;;;;;5093090;28;20039;-77
2022/01/21 09:28:43;;;;;;;9.98;6.93;;;;;;;;;;5111830;28;20020;-77
2022/01/21 09:31:09;;;;;;;11.95;7.15;;;;;;;;;;5111546;28;20023;-77
2022/01/21 09:33:35;;;;;;;10.85;6.32;;;;;;;;;;5111789;28;20024;-77
2022/01/21 09:36:01;;;;;;;9.23;6.30;;;;;;;;;;5111938;28;20102;-77
2022/01/21 09:38:29;;;;;;;11.55;6.30;;;;;;;;;;5112044;28;20020;-77
2022/01/21 09:40:55;;;;;;;14.75;6.50;;;;;;;;;;5111719;28;20394;-77
2022/01/21 09:43:22;;;;;;;10.45;6.22;;;;;;;;;;5092884;28;20100;-78
2022/01/21 09:45:51;;;;;;;9.60;6.03;;;;;;;;;;5111566;28;20027;-77
2022/01/21 09:48:22;;;;;;;9.95;5.40;;;;;;;;;;5110950;28;20106;-77
2022/01/21 09:50:50;;;;;;;8.88;5.70;;;;;;;;;;5111466;28;20027;-77
2022/01/21 09:53:17;;;;;;;8.45;5.35;;;;;;;;;;5111276;28;20027;-77
2022/01/21 09:55:44;;;;;;;9.43;5.05;;;;;;;;;;5111369;28;20392;-77
2022/01/21 09:58:10;;;;;;;8.95;5.18;;;;;;;;;;5111248;28;20023;-77
2022/01/21 10:00:36;;;;;;;7.18;5.25;;;;;;;;;;5111348;28;20019;-77
2022/01/21 10:03:04;;;;;;;9.07;5.05;;;;;;;;;;5093171;28;20075;-78
2022/01/21 10:05:30;;;;;;;8.80;5.32;;;;;;;;;;5111605;28;20028;-77
2022/01/21 10:07:59;;;;;;;7.22;4.47;;;;;;;;;;5111292;28;20024;-77
2022/01/21 10:10:26;;;;;;;9.13;4.25;;;;;;;;;;5111059;28;20360;-77
2022/01/21 10:13:01;;;;;;;8.55;4.80;;;;;;;;;;5111247;28;20028;-77
2022/01/21 10:15:27;;;;;;;7.03;3.97;;;;;;;;;;5112162;28;20476;-77
2022/01/21 10:18:13;;;;;;;7.03;4.07;;;;;;;;;;5114921;28;20376;-77
2022/01/21 10:20:56;;;;;;;6.70;4.15;;;;;;;;;;5114272;28;20044;-77
2022/01/21 10:23:22;;;;;;;8.02;4.13;;;;;;;;;;5115094;28;20391;-77
2022/01/21 10:25:56;;;;;;;6.80;3.95;;;;;;;;;;5115128;28;20035;-77
2022/01/21 10:28:22;;;;;;;8.23;4.07;;;;;;;;;;5114913;28;20031;-77
2022/01/21 10:30:49;;;;;;;5.57;3.92;;;;;;;;;;5115020;28;20032;-77
2022/01/21 10:33:19;;;;;;;6.75;4.15;;;;;;;;;;5114835;28;20095;-77
2022/01/21 10:35:48;;;;;;;6.43;3.88;;;;;;;;;;5114730;28;20035;-77
2022/01/21 10:38:17;;;;;;;9.07;4.03;;;;;;;;;;5114657;28;20027;-77
2022/01/21 10:40:43;;;;;;;7.50;3.88;;;;;;;;;;5114855;28;20483;-77
2022/01/21 10:43:13;;;;;;;8.30;4.00;;;;;;;;;;5114629;28;20038;-77
2022/01/21 10:45:52;;;;;;;5.45;3.00;;;;;;;;;;5114646;28;20130;-77
2022/01/21 10:48:18;;;;;;;7.47;4.10;;;;;;;;;;5114209;28;20015;-77
2022/01/21 10:50:45;;;;;;;6.18;3.55;;;;;;;;;;5114670;28;20036;-77
2022/01/21 10:53:27;;;;;;;5.28;3.20;;;;;;;;;;5114386;28;20026;-77
2022/01/21 10:55:53;;;;;;;6.47;3.50;;;;;;;;;;5114659;28;20103;-78
2022/01/21 10:58:20;;;;;;;7.07;3.28;;;;;;;;;;5114465;28;20024;-77
2022/01/21 11:00:59;;;;;;;6.63;3.15;;;;;;;;;;5114591;28;20053;-77
2022/01/21 11:03:28;;;;;;;6.22;3.15;;;;;;;;;;5114227;28;20038;-77
2022/01/21 11:06:12;;;;;;;6.18;3.38;;;;;;;;;;5114287;28;20550;-77
2022/01/21 11:08:38;;;;;;;6.95;2.78;;;;;;;;;;5114325;28;20020;-77
2022/01/21 11:11:04;;;;;;;6.55;2.60;;;;;;;;;;5113998;28;20491;-77
2022/01/21 11:13:31;;;;;;;4.70;2.33;;;;;;;;;;5114584;28;20065;-77
2022/01/21 11:15:59;;;;;;;5.38;2.28;;;;;;;;;;5114472;28;20483;-77
2022/01/21 11:18:26;;;;;;;4.80;2.45;;;;;;;;;;5113647;28;20022;-78
2022/01/21 11:20:57;;;;;;;4.50;2.13;;;;;;;;;;5114075;28;20492;-77
2022/01/21 11:23:23;;;;;;;3.60;1.75;;;;;;;;;;5113891;28;20394;-77
2022/01/21 11:25:57;;;;;;;5.20;1.98;;;;;;;;;;5095242;28;20032;-77
2022/01/21 11:28:25;;;;;;;3.40;1.95;;;;;;;;;;5095189;28;20106;-78
2022/01/21 11:30:52;;;;;;;4.57;2.00;;;;;;;;;;5095652;28;20047;-78
2022/01/21 11:33:20;;;;;;;4.72;1.77;;;;;;;;;;5113746;28;20028;-78
2022/01/21 11:35:50;;;;;;;5.10;1.90;;;;;;;;;;5113830;28;20060;-78
2022/01/21 11:38:17;;;;;;;3.80;1.90;;;;;;;;;;5113261;28;20399;-77
2022/01/21 11:40:43;;;;;;;3.30;1.63;;;;;;;;;;5113608;28;20120;-78
2022/01/21 11:43:10;;;;;;;4.18;1.52;;;;;;;;;;5113420;28;20387;-77
2022/01/21 11:50:39;;;;;;;10.30;2.92;;;;;;;;;;5113651;28;20036;-78
2022/01/21 11:53:05;;;;;;;5.15;2.28;;;;;;;;;;5113139;28;20465;-77
2022/01/21 11:55:33;;;;;;;7.63;3.65;;;;;;;;;;5113620;28;20046;-78
2022/01/21 11:58:28;;;;;;;10.15;4.50;;;;;;;;;;5095933;28;20059;-78
2022/01/21 12:00:54;;;;;;;10.55;4.55;;;;;;;;;;5092406;28;20038;-78
2022/01/21 12:03:23;;;;;;;9.30;4.60;;;;;;;;;;5112240;28;20023;-79
2022/01/21 12:05:49;;;;;;;11.70;4.35;;;;;;;;;;5114163;28;20063;-78
2022/01/21 12:08:15;;;;;;;10.85;3.80;;;;;;;;;;5113865;28;20424;-77
2022/01/21 12:10:43;;;;;;;9.65;4.20;;;;;;;;;;5113472;28;20035;-78
2022/01/21 12:13:18;;;;;;;8.80;3.90;;;;;;;;;;5113156;28;20016;-77
2022/01/21 12:20:59;;;;;;;9.40;3.20;;;;;;;;;;5114041;28;20031;-80
2022/01/21 12:23:25;;;;;;;6.80;2.78;;;;;;;;;;5112349;28;20030;-78
2022/01/21 12:26:10;;;;;;;8.40;3.42;;;;;;;;;;5112784;28;20036;-78
2022/01/21 12:28:36;;;;;;;7.57;3.40;;;;;;;;;;5112663;28;20024;-79
2022/01/21 12:31:03;;;;;;;7.88;3.15;;;;;;;;;;5112417;28;20433;-78
2022/01/21 12:36:18;;;;;;;6.90;2.95;;;;;;;;;;5110908;28;20045;-79
2022/01/21 12:41:16;;;;;;;6.55;3.05;;;;;;;;;;5111433;28;20028;-80
2022/01/21 12:43:43;;;;;;;8.43;2.58;;;;;;;;;;5110799;28;20071;-79
2022/01/21 12:46:11;;;;;;;6.95;2.92;;;;;;;;;;5089731;28;20031;-81
2022/01/21 12:48:38;;;;;;;8.90;3.28;;;;;;;;;;5111099;28;20058;-79
2022/01/21 12:51:15;;;;;;;5.95;2.75;;;;;;;;;;5111076;28;20045;-78
2022/01/21 12:56:27;;;;;;;5.63;2.35;;;;;;;;;;5077525;28;20069;-78
2022/01/21 12:58:54;;;;;;;6.60;2.17;;;;;;;;;;5112212;28;20030;-79
2022/01/21 13:01:20;;;;;;;6.90;2.38;;;;;;;;;;5111442;28;20031;-79
2022/01/21 13:03:57;;;;;;;8.02;2.17;;;;;;;;;;5112501;28;20509;-78
2022/01/21 13:06:23;;;;;;;6.53;2.58;;;;;;;;;;5111790;28;20384;-79
2022/01/21 13:09:12;;;;;;;6.68;2.75;;;;;;;;;;5111735;28;20137;-78
2022/01/21 13:11:41;;;;;;;6.03;1.83;;;;;;;;;;5093426;28;20130;-79
2022/01/21 13:14:34;;;;;;;5.78;2.03;;;;;;;;;;5111434;28;20012;-79
2022/01/21 13:17:06;;;;;;;7.18;2.15;;;;;;;;;;5111930;28;20015;-79
2022/01/21 13:19:42;;;;;;;4.93;1.85;;;;;;;;;;5093948;28;20403;-79
2022/01/21 13:22:32;;;;;;;3.92;1.55;;;;;;;;;;5111601;28;20023;-79
2022/01/21 13:25:08;;;;;;;4.15;2.03;;;;;;;;;;5111935;28;20020;-79
2022/01/21 13:27:36;;;;;;;5.00;1.90;;;;;;;;;;5111514;28;20483;-79
2022/01/21 13:30:09;;;;;;;5.00;1.52;;;;;;;;;;5111735;28;20364;-78
2022/01/21 13:32:35;;;;;;;5.05;2.00;;;;;;;;;;5111695;28;20028;-78
2022/01/21 13:35:10;;;;;;;4.55;2.15;;;;;;;;;;5111814;28;20023;-78
2022/01/21 13:37:37;;;;;;;6.85;2.20;;;;;;;;;;5111708;28;20027;-79
2022/01/21 13:40:05;;;;;;;4.40;1.83;;;;;;;;;;5110701;28;20054;-79
2022/01/21 13:42:32;;;;;;;4.82;1.88;;;;;;;;;;5112039;28;20365;-79
2022/01/21 13:45:04;;;;;;;4.45;1.75;;;;;;;;;;5111685;28;20043;-79
2022/01/21 13:47:32;;;;;;;3.92;1.25;;;;;;;;;;5111905;28;20027;-79
2022/01/21 13:50:05;;;;;;;5.25;1.92;;;;;;;;;;5113755;28;20028;-79
2022/01/21 13:52:39;;;;;;;4.28;1.60;;;;;;;;;;5116308;28;20020;-80
2022/01/21 13:55:05;;;;;;;6.60;1.70;;;;;;;;;;5115579;28;20498;-79
2022/01/21 13:57:32;;;;;;;4.78;1.48;;;;;;;;;;5114364;28;20023;-79
2022/01/21 13:59:58;;;;;;;4.38;1.85;;;;;;;;;;5114759;28;20055;-79
2022/01/21 14:02:24;;;;;;;4.97;1.48;;;;;;;;;;5126920;27;20124;-79
2022/01/21 14:05:01;;;;;;;6.72;1.80;;;;;;;;;;5135995;27;20108;-79
2022/01/21 14:07:28;;;;;;;5.15;1.88;;;;;;;;;;5127511;27;20019;-79
2022/01/21 14:09:55;;;;;;;3.85;1.42;;;;;;;;;;5115094;27;20467;-79
2022/01/21 14:12:21;;;;;;;7.50;1.90;;;;;;;;;;5115458;28;20438;-79
2022/01/21 14:14:49;;;;;;;4.47;1.70;;;;;;;;;;5115590;28;20050;-79
2022/01/21 14:17:15;;;;;;;4.30;1.80;;;;;;;;;;5096822;28;20024;-79
2022/01/21 14:19:43;;;;;;;3.78;1.63;;;;;;;;;;5125300;27;20387;-79
2022/01/21 14:22:09;;;;;;;4.63;2.03;;;;;;;;;;5122395;27;20058;-79
2022/01/21 14:24:42;;;;;;;4.32;1.45;;;;;;;;;;5118548;27;20491;-79
2022/01/21 14:27:16;;;;;;;5.07;1.58;;;;;;;;;;5122613;27;20023;-79
2022/01/21 14:29:42;;;;;;;4.00;1.38;;;;;;;;;;5100083;28;20118;-80
2022/01/21 14:32:21;;;;;;;3.92;1.52;;;;;;;;;;5113465;28;20483;-79
2022/01/21 14:34:47;;;;;;;4.65;1.80;;;;;;;;;;5115180;28;20114;-79
2022/01/21 14:37:15;;;;;;;4.75;1.90;;;;;;;;;;5114696;28;20019;-79
2022/01/21 14:39:45;;;;;;;3.83;1.50;;;;;;;;;;5114270;28;20517;-78
2022/01/21 14:42:17;;;;;;;3.33;1.30;;;;;;;;;;5114686;28;20023;-78
2022/01/21 14:44:44;;;;;;;6.18;1.55;;;;;;;;;;5114391;28;20027;-78
2022/01/21 14:47:10;;;;;;;3.38;1.30;;;;;;;;;;5113921;28;20035;-78
2022/01/21 14:49:37;;;;;;;2.60;1.25;;;;;;;;;;5113242;28;20372;-78
2022/01/21 14:54:48;;;;;;;2.47;1.27;;;;;;;;;;5114643;28;20188;-79
2022/01/21 14:57:14;;;;;;;4.00;1.58;;;;;;;;;;5114531;28;20080;-79
2022/01/21 14:59:56;;;;;;;5.97;1.83;;;;;;;;;;5114504;28;20474;-79
2022/01/21 15:02:41;;;;;;;5.18;1.63;;;;;;;;;;5113106;28;20034;-79
2022/01/21 15:05:14;;;;;;;3.28;1.40;;;;;;;;;;5113068;28;20092;-79
2022/01/21 15:07:42;;;;;;;5.10;1.40;;;;;;;;;;5094289;27;20118;-78
2022/01/21 15:15:44;;;;;;;3.97;1.30;;;;;;;;;;5114302;28;20115;-79
2022/01/21 15:18:13;;;;;;;7.82;1.10;;;;;;;;;;5095150;28;20016;-80
2022/01/21 15:20:39;;;;;;;4.38;1.80;;;;;;;;;;5114219;28;20031;-80
2022/01/21 15:23:06;;;;;;;5.35;1.70;;;;;;;;;;5112200;28;20023;-79
2022/01/21 15:25:33;;;;;;;2.70;1.15;;;;;;;;;;5112599;27;20403;-80
2022/01/21 15:27:59;;;;;;;4.28;1.40;;;;;;;;;;5114234;28;20024;-80
2022/01/21 15:30:26;;;;;;;2.80;0.98;;;;;;;;;;5113706;28;20020;-80
2022/01/21 15:32:53;;;;;;;4.15;1.63;;;;;;;;;;5114042;28;20199;-80
2022/01/21 15:35:19;;;;;;;4.15;1.50;;;;;;;;;;5113638;28;20047;-80
2022/01/21 15:37:45;;;;;;;4.03;1.42;;;;;;;;;;5113485;28;20419;-80
2022/01/21 15:40:11;;;;;;;4.47;1.23;;;;;;;;;;5113268;28;20016;-80
2022/01/21 15:42:38;;;;;;;2.17;1.00;;;;;;;;;;5113013;28;20027;-80
2022/01/21 15:45:04;;;;;;;3.83;1.40;;;;;;;;;;5112391;28;20127;-80
2022/01/21 15:47:31;;;;;;;4.03;1.20;;;;;;;;;;5094838;28;20030;-80
2022/01/21 15:49:57;;;;;;;3.30;1.30;;;;;;;;;;5113831;28;20019;-80
2022/01/21 15:52:24;;;;;;;3.80;1.30;;;;;;;;;;5113713;28;20107;-80
2022/01/21 15:54:50;;;;;;;5.13;1.25;;;;;;;;;;5113088;28;20024;-79
2022/01/21 15:57:17;;;;;;;4.18;1.13;;;;;;;;;;5112353;28;20074;-80
2022/01/21 15:59:43;;;;;;;4.28;1.58;;;;;;;;;;5113508;28;20128;-79
2022/01/21 16:02:09;;;;;;;3.15;1.27;;;;;;;;;;5113204;28;20027;-79